sensor_id;sensor_type;location;lat;lon;timestamp;temperature;humidity
54140;DHT22;40046;53.254;5.900;2022-09-16T00:01:52;11.80;99.90
54140;DHT22;40046;53.254;5.900;2022-09-16T00:04:18;11.80;99.90
54140;DHT22;40046;53.254;5.900;2022-09-16T00:06:44;11.80;99.90
54140;DHT22;40046;53.254;5.900;2022-09-16T00:09:09;11.80;99.90
54140;DHT22;40046;53.254;5.900;2022-09-16T00:11:35;11.80;99.90
54140;DHT22;40046;53.254;5.900;2022-09-16T00:14:01;11.80;99.90
54140;DHT22;40046;53.254;5.900;2022-09-16T00:16:28;11.80;99.90
54140;DHT22;40046;53.254;5.900;2022-09-16T00:18:59;11.80;99.90
54140;DHT22;40046;53.254;5.900;2022-09-16T00:21:26;11.90;99.90
54140;DHT22;40046;53.254;5.900;2022-09-16T00:23:54;11.90;99.90
54140;DHT22;40046;53.254;5.900;2022-09-16T00:26:19;11.90;99.90
54140;DHT22;40046;53.254;5.900;2022-09-16T00:28:49;11.90;99.90
54140;DHT22;40046;53.254;5.900;2022-09-16T00:31:16;11.90;99.90
54140;DHT22;40046;53.254;5.900;2022-09-16T00:33:42;11.90;99.90
54140;DHT22;40046;53.254;5.900;2022-09-16T00:36:14;11.90;99.90
54140;DHT22;40046;53.254;5.900;2022-09-16T00:38:40;12.00;99.90
54140;DHT22;40046;53.254;5.900;2022-09-16T00:41:07;12.00;99.90
54140;DHT22;40046;53.254;5.900;2022-09-16T00:44:06;11.90;99.90
54140;DHT22;40046;53.254;5.900;2022-09-16T00:46:37;11.90;99.90
54140;DHT22;40046;53.254;5.900;2022-09-16T00:49:16;11.80;99.90
54140;DHT22;40046;53.254;5.900;2022-09-16T00:51:44;11.80;99.90
54140;DHT22;40046;53.254;5.900;2022-09-16T00:54:12;11.70;99.90
54140;DHT22;40046;53.254;5.900;2022-09-16T00:56:41;11.70;99.90
54140;DHT22;40046;53.254;5.900;2022-09-16T00:59:18;11.70;99.90
54140;DHT22;40046;53.254;5.900;2022-09-16T01:01:45;11.70;99.90
54140;DHT22;40046;53.254;5.900;2022-09-16T01:04:28;11.60;99.90
54140;DHT22;40046;53.254;5.900;2022-09-16T01:06:54;11.60;99.90
54140;DHT22;40046;53.254;5.900;2022-09-16T01:09:22;11.50;99.90
54140;DHT22;40046;53.254;5.900;2022-09-16T01:11:48;11.50;99.90
54140;DHT22;40046;53.254;5.900;2022-09-16T01:14:15;11.50;99.90
54140;DHT22;40046;53.254;5.900;2022-09-16T01:17:02;11.50;99.90
54140;DHT22;40046;53.254;5.900;2022-09-16T01:26:07;11.50;99.90
54140;DHT22;40046;53.254;5.900;2022-09-16T01:34:35;11.60;99.90
54140;DHT22;40046;53.254;5.900;2022-09-16T01:37:23;11.60;99.90
54140;DHT22;40046;53.254;5.900;2022-09-16T01:45:27;11.80;99.90
54140;DHT22;40046;53.254;5.900;2022-09-16T01:50:55;11.80;99.90
54140;DHT22;40046;53.254;5.900;2022-09-16T01:53:36;11.80;99.90
54140;DHT22;40046;53.254;5.900;2022-09-16T01:56:23;11.80;99.90
54140;DHT22;40046;53.254;5.900;2022-09-16T01:59:07;11.80;99.90
54140;DHT22;40046;53.254;5.900;2022-09-16T02:02:03;11.80;99.90
54140;DHT22;40046;53.254;5.900;2022-09-16T02:04:35;11.80;99.90
54140;DHT22;40046;53.254;5.900;2022-09-16T02:07:05;11.80;99.90
54140;DHT22;40046;53.254;5.900;2022-09-16T02:09:41;11.80;99.90
54140;DHT22;40046;53.254;5.900;2022-09-16T02:12:13;11.80;99.90
54140;DHT22;40046;53.254;5.900;2022-09-16T02:14:42;11.70;99.90
54140;DHT22;40046;53.254;5.900;2022-09-16T02:17:14;11.70;99.90
54140;DHT22;40046;53.254;5.900;2022-09-16T02:19:41;11.60;99.90
54140;DHT22;40046;53.254;5.900;2022-09-16T02:22:15;11.50;99.90
54140;DHT22;40046;53.254;5.900;2022-09-16T02:24:41;11.50;99.90
54140;DHT22;40046;53.254;5.900;2022-09-16T02:27:13;11.40;99.90
54140;DHT22;40046;53.254;5.900;2022-09-16T02:29:50;11.40;99.90
54140;DHT22;40046;53.254;5.900;2022-09-16T02:32:18;11.40;99.90
54140;DHT22;40046;53.254;5.900;2022-09-16T02:34:48;11.40;99.90
54140;DHT22;40046;53.254;5.900;2022-09-16T02:37:18;11.40;99.90
54140;DHT22;40046;53.254;5.900;2022-09-16T02:39:49;11.40;99.90
54140;DHT22;40046;53.254;5.900;2022-09-16T02:42:19;11.40;99.90
54140;DHT22;40046;53.254;5.900;2022-09-16T02:44:45;11.50;99.90
54140;DHT22;40046;53.254;5.900;2022-09-16T02:50:20;11.50;99.90
54140;DHT22;40046;53.254;5.900;2022-09-16T02:53:06;11.50;99.90
54140;DHT22;40046;53.254;5.900;2022-09-16T02:55:40;11.50;99.90
54140;DHT22;40046;53.254;5.900;2022-09-16T02:58:10;11.50;99.90
54140;DHT22;40046;53.254;5.900;2022-09-16T03:00:39;11.40;99.90
54140;DHT22;40046;53.254;5.900;2022-09-16T03:03:06;11.40;99.90
54140;DHT22;40046;53.254;5.900;2022-09-16T03:05:32;11.40;99.90
54140;DHT22;40046;53.254;5.900;2022-09-16T03:07:59;11.40;99.90
54140;DHT22;40046;53.254;5.900;2022-09-16T03:10:35;11.40;99.90
54140;DHT22;40046;53.254;5.900;2022-09-16T03:13:11;11.40;99.90
54140;DHT22;40046;53.254;5.900;2022-09-16T03:24:03;11.60;99.90
54140;DHT22;40046;53.254;5.900;2022-09-16T03:26:48;11.60;99.90
54140;DHT22;40046;53.254;5.900;2022-09-16T03:29:36;11.50;99.90
54140;DHT22;40046;53.254;5.900;2022-09-16T03:32:22;11.50;99.90
54140;DHT22;40046;53.254;5.900;2022-09-16T03:34:55;11.50;99.90
54140;DHT22;40046;53.254;5.900;2022-09-16T03:37:23;11.50;99.90
54140;DHT22;40046;53.254;5.900;2022-09-16T03:39:51;11.40;99.90
54140;DHT22;40046;53.254;5.900;2022-09-16T03:42:18;11.40;99.90
54140;DHT22;40046;53.254;5.900;2022-09-16T03:44:44;11.30;99.90
54140;DHT22;40046;53.254;5.900;2022-09-16T03:47:10;11.30;99.90
54140;DHT22;40046;53.254;5.900;2022-09-16T03:49:36;11.30;99.90
54140;DHT22;40046;53.254;5.900;2022-09-16T03:52:03;11.20;99.90
54140;DHT22;40046;53.254;5.900;2022-09-16T03:54:30;11.10;99.90
54140;DHT22;40046;53.254;5.900;2022-09-16T03:56:56;11.10;99.90
54140;DHT22;40046;53.254;5.900;2022-09-16T03:59:22;11.00;99.90
54140;DHT22;40046;53.254;5.900;2022-09-16T04:01:48;11.00;99.90
54140;DHT22;40046;53.254;5.900;2022-09-16T04:04:14;10.90;99.90
54140;DHT22;40046;53.254;5.900;2022-09-16T04:06:40;10.80;99.90
54140;DHT22;40046;53.254;5.900;2022-09-16T04:09:05;10.80;99.90
54140;DHT22;40046;53.254;5.900;2022-09-16T04:11:33;10.70;99.90
54140;DHT22;40046;53.254;5.900;2022-09-16T04:14:00;10.60;99.90
54140;DHT22;40046;53.254;5.900;2022-09-16T04:16:26;10.50;99.90
54140;DHT22;40046;53.254;5.900;2022-09-16T04:18:52;10.50;99.90
54140;DHT22;40046;53.254;5.900;2022-09-16T04:21:18;10.40;99.90
54140;DHT22;40046;53.254;5.900;2022-09-16T04:23:44;10.40;99.90
54140;DHT22;40046;53.254;5.900;2022-09-16T04:26:10;10.30;99.90
54140;DHT22;40046;53.254;5.900;2022-09-16T04:28:36;10.30;99.90
54140;DHT22;40046;53.254;5.900;2022-09-16T04:31:04;10.30;99.90
54140;DHT22;40046;53.254;5.900;2022-09-16T04:33:32;10.30;99.90
54140;DHT22;40046;53.254;5.900;2022-09-16T04:36:04;10.30;99.90
54140;DHT22;40046;53.254;5.900;2022-09-16T04:38:30;10.30;99.90
54140;DHT22;40046;53.254;5.900;2022-09-16T04:41:10;10.30;99.90
54140;DHT22;40046;53.254;5.900;2022-09-16T04:43:36;10.30;99.90
54140;DHT22;40046;53.254;5.900;2022-09-16T04:46:05;10.30;99.90
54140;DHT22;40046;53.254;5.900;2022-09-16T04:48:32;10.30;99.90
54140;DHT22;40046;53.254;5.900;2022-09-16T04:51:06;10.30;99.90
54140;DHT22;40046;53.254;5.900;2022-09-16T04:53:34;10.30;99.90
54140;DHT22;40046;53.254;5.900;2022-09-16T04:56:11;10.30;99.90
54140;DHT22;40046;53.254;5.900;2022-09-16T04:58:41;10.30;99.90
54140;DHT22;40046;53.254;5.900;2022-09-16T05:01:12;10.40;99.90
54140;DHT22;40046;53.254;5.900;2022-09-16T05:03:40;10.60;99.90
54140;DHT22;40046;53.254;5.900;2022-09-16T05:06:15;10.70;99.90
54140;DHT22;40046;53.254;5.900;2022-09-16T05:08:41;10.90;99.90
54140;DHT22;40046;53.254;5.900;2022-09-16T05:11:50;10.90;99.90
54140;DHT22;40046;53.254;5.900;2022-09-16T05:13:59;11.00;99.90
54140;DHT22;40046;53.254;5.900;2022-09-16T05:16:25;11.10;99.90
54140;DHT22;40046;53.254;5.900;2022-09-16T05:18:55;11.00;99.90
54140;DHT22;40046;53.254;5.900;2022-09-16T05:21:22;11.10;99.90
54140;DHT22;40046;53.254;5.900;2022-09-16T05:23:48;11.00;99.90
54140;DHT22;40046;53.254;5.900;2022-09-16T05:26:23;11.00;99.90
54140;DHT22;40046;53.254;5.900;2022-09-16T05:28:50;11.00;99.90
54140;DHT22;40046;53.254;5.900;2022-09-16T05:31:22;11.00;99.90
54140;DHT22;40046;53.254;5.900;2022-09-16T05:33:59;11.00;99.90
54140;DHT22;40046;53.254;5.900;2022-09-16T05:36:27;11.00;99.90
54140;DHT22;40046;53.254;5.900;2022-09-16T05:38:53;11.10;99.90
54140;DHT22;40046;53.254;5.900;2022-09-16T05:41:19;11.00;99.90
54140;DHT22;40046;53.254;5.900;2022-09-16T05:43:44;11.10;99.90
54140;DHT22;40046;53.254;5.900;2022-09-16T05:46:21;11.00;99.90
54140;DHT22;40046;53.254;5.900;2022-09-16T05:48:48;11.00;99.90
54140;DHT22;40046;53.254;5.900;2022-09-16T05:51:16;11.00;99.90
54140;DHT22;40046;53.254;5.900;2022-09-16T05:53:43;11.10;99.90
54140;DHT22;40046;53.254;5.900;2022-09-16T05:56:17;11.20;99.90
54140;DHT22;40046;53.254;5.900;2022-09-16T05:58:43;11.50;99.90
54140;DHT22;40046;53.254;5.900;2022-09-16T06:01:12;11.70;99.90
54140;DHT22;40046;53.254;5.900;2022-09-16T06:03:40;11.80;99.90
54140;DHT22;40046;53.254;5.900;2022-09-16T06:06:27;11.80;99.90
54140;DHT22;40046;53.254;5.900;2022-09-16T06:08:55;11.80;99.90
54140;DHT22;40046;53.254;5.900;2022-09-16T06:11:22;11.80;99.90
54140;DHT22;40046;53.254;5.900;2022-09-16T06:13:53;11.70;99.90
54140;DHT22;40046;53.254;5.900;2022-09-16T06:16:21;11.70;99.90
54140;DHT22;40046;53.254;5.900;2022-09-16T06:18:46;11.60;99.90
54140;DHT22;40046;53.254;5.900;2022-09-16T06:21:12;11.60;99.90
54140;DHT22;40046;53.254;5.900;2022-09-16T06:23:39;11.60;99.90
54140;DHT22;40046;53.254;5.900;2022-09-16T06:26:08;11.60;99.90
54140;DHT22;40046;53.254;5.900;2022-09-16T06:28:34;11.50;99.90
54140;DHT22;40046;53.254;5.900;2022-09-16T06:33:31;11.50;99.90
54140;DHT22;40046;53.254;5.900;2022-09-16T06:35:57;11.50;99.90
54140;DHT22;40046;53.254;5.900;2022-09-16T06:38:23;11.50;99.90
54140;DHT22;40046;53.254;5.900;2022-09-16T06:40:49;11.50;99.90
54140;DHT22;40046;53.254;5.900;2022-09-16T06:43:15;11.50;99.90
54140;DHT22;40046;53.254;5.900;2022-09-16T06:45:41;11.50;99.90
54140;DHT22;40046;53.254;5.900;2022-09-16T06:48:07;11.60;99.90
54140;DHT22;40046;53.254;5.900;2022-09-16T06:50:32;11.70;99.90
54140;DHT22;40046;53.254;5.900;2022-09-16T06:52:58;11.80;99.90
54140;DHT22;40046;53.254;5.900;2022-09-16T06:55:24;11.90;99.90
54140;DHT22;40046;53.254;5.900;2022-09-16T06:57:50;12.10;99.90
54140;DHT22;40046;53.254;5.900;2022-09-16T07:00:16;12.40;99.90
54140;DHT22;40046;53.254;5.900;2022-09-16T07:02:41;12.60;99.90
54140;DHT22;40046;53.254;5.900;2022-09-16T07:05:07;12.80;99.90
54140;DHT22;40046;53.254;5.900;2022-09-16T07:07:34;12.90;99.90
54140;DHT22;40046;53.254;5.900;2022-09-16T07:10:01;12.90;99.90
54140;DHT22;40046;53.254;5.900;2022-09-16T07:12:27;12.90;99.90
54140;DHT22;40046;53.254;5.900;2022-09-16T07:14:53;12.90;99.90
54140;DHT22;40046;53.254;5.900;2022-09-16T07:17:19;12.80;99.90
54140;DHT22;40046;53.254;5.900;2022-09-16T07:19:48;12.90;99.90
54140;DHT22;40046;53.254;5.900;2022-09-16T07:22:13;13.00;99.90
54140;DHT22;40046;53.254;5.900;2022-09-16T07:24:39;13.10;99.90
54140;DHT22;40046;53.254;5.900;2022-09-16T07:27:05;13.20;99.90
54140;DHT22;40046;53.254;5.900;2022-09-16T07:29:31;13.30;99.90
54140;DHT22;40046;53.254;5.900;2022-09-16T07:31:57;13.20;99.90
54140;DHT22;40046;53.254;5.900;2022-09-16T07:34:22;13.20;99.90
54140;DHT22;40046;53.254;5.900;2022-09-16T07:36:49;13.20;99.90
54140;DHT22;40046;53.254;5.900;2022-09-16T07:39:16;13.20;99.90
54140;DHT22;40046;53.254;5.900;2022-09-16T07:41:44;13.10;99.90
54140;DHT22;40046;53.254;5.900;2022-09-16T07:44:12;13.20;99.90
54140;DHT22;40046;53.254;5.900;2022-09-16T07:46:39;13.20;99.90
54140;DHT22;40046;53.254;5.900;2022-09-16T07:49:06;13.10;99.90
54140;DHT22;40046;53.254;5.900;2022-09-16T07:51:32;13.10;99.90
54140;DHT22;40046;53.254;5.900;2022-09-16T07:54:01;13.10;99.90
54140;DHT22;40046;53.254;5.900;2022-09-16T07:56:30;13.10;99.90
54140;DHT22;40046;53.254;5.900;2022-09-16T07:58:59;13.10;99.90
54140;DHT22;40046;53.254;5.900;2022-09-16T08:01:25;13.20;99.90
54140;DHT22;40046;53.254;5.900;2022-09-16T08:03:52;13.20;99.90
54140;DHT22;40046;53.254;5.900;2022-09-16T08:06:21;13.30;99.90
54140;DHT22;40046;53.254;5.900;2022-09-16T08:08:47;13.40;99.90
54140;DHT22;40046;53.254;5.900;2022-09-16T08:11:15;13.50;99.90
54140;DHT22;40046;53.254;5.900;2022-09-16T08:13:42;13.50;99.90
54140;DHT22;40046;53.254;5.900;2022-09-16T08:16:14;13.70;99.90
54140;DHT22;40046;53.254;5.900;2022-09-16T08:18:41;13.90;99.90
54140;DHT22;40046;53.254;5.900;2022-09-16T08:21:12;14.10;99.90
54140;DHT22;40046;53.254;5.900;2022-09-16T08:23:38;14.30;99.90
54140;DHT22;40046;53.254;5.900;2022-09-16T08:26:06;14.40;99.90
54140;DHT22;40046;53.254;5.900;2022-09-16T08:28:32;14.40;99.90
54140;DHT22;40046;53.254;5.900;2022-09-16T08:30:59;14.20;99.90
54140;DHT22;40046;53.254;5.900;2022-09-16T08:33:26;14.20;99.90
54140;DHT22;40046;53.254;5.900;2022-09-16T08:38:24;14.20;99.90
54140;DHT22;40046;53.254;5.900;2022-09-16T08:40:57;14.20;99.90
54140;DHT22;40046;53.254;5.900;2022-09-16T08:43:42;14.30;99.90
54140;DHT22;40046;53.254;5.900;2022-09-16T08:46:26;14.30;99.90
54140;DHT22;40046;53.254;5.900;2022-09-16T08:49:16;14.40;99.90
54140;DHT22;40046;53.254;5.900;2022-09-16T08:51:45;14.50;99.90
54140;DHT22;40046;53.254;5.900;2022-09-16T08:56:48;14.90;99.90
54140;DHT22;40046;53.254;5.900;2022-09-16T08:59:18;15.10;99.90
54140;DHT22;40046;53.254;5.900;2022-09-16T09:04:48;14.90;99.90
54140;DHT22;40046;53.254;5.900;2022-09-16T09:13:59;15.00;99.90
54140;DHT22;40046;53.254;5.900;2022-09-16T09:21:10;15.20;99.90
54140;DHT22;40046;53.254;5.900;2022-09-16T09:32:20;15.40;99.90
54140;DHT22;40046;53.254;5.900;2022-09-16T09:40:18;15.80;99.90
54140;DHT22;40046;53.254;5.900;2022-09-16T09:43:15;15.80;99.90
54140;DHT22;40046;53.254;5.900;2022-09-16T09:45:53;15.70;99.90
54140;DHT22;40046;53.254;5.900;2022-09-16T09:50:52;15.60;99.90
54140;DHT22;40046;53.254;5.900;2022-09-16T09:53:28;15.60;99.90
54140;DHT22;40046;53.254;5.900;2022-09-16T09:56:25;15.60;99.90
54140;DHT22;40046;53.254;5.900;2022-09-16T10:01:19;15.70;99.90
54140;DHT22;40046;53.254;5.900;2022-09-16T10:03:47;15.80;99.90
54140;DHT22;40046;53.254;5.900;2022-09-16T10:06:16;15.90;99.90
54140;DHT22;40046;53.254;5.900;2022-09-16T10:08:48;16.10;99.90
54140;DHT22;40046;53.254;5.900;2022-09-16T10:11:27;16.10;99.90
54140;DHT22;40046;53.254;5.900;2022-09-16T10:13:57;16.10;99.90
54140;DHT22;40046;53.254;5.900;2022-09-16T10:16:32;16.10;99.90
54140;DHT22;40046;53.254;5.900;2022-09-16T10:19:17;16.10;99.90
54140;DHT22;40046;53.254;5.900;2022-09-16T10:21:45;16.10;99.90
54140;DHT22;40046;53.254;5.900;2022-09-16T10:26:56;16.00;99.90
54140;DHT22;40046;53.254;5.900;2022-09-16T10:29:22;16.00;99.90
54140;DHT22;40046;53.254;5.900;2022-09-16T10:31:49;16.00;99.90
54140;DHT22;40046;53.254;5.900;2022-09-16T10:34:33;15.90;99.90
54140;DHT22;40046;53.254;5.900;2022-09-16T10:37:16;15.90;99.90
54140;DHT22;40046;53.254;5.900;2022-09-16T10:39:51;16.00;99.90
54140;DHT22;40046;53.254;5.900;2022-09-16T10:42:26;16.20;99.90
54140;DHT22;40046;53.254;5.900;2022-09-16T10:44:56;16.40;99.90
54140;DHT22;40046;53.254;5.900;2022-09-16T10:47:27;16.30;99.90
54140;DHT22;40046;53.254;5.900;2022-09-16T10:50:01;16.10;99.90
54140;DHT22;40046;53.254;5.900;2022-09-16T10:52:31;16.10;99.90
54140;DHT22;40046;53.254;5.900;2022-09-16T10:57:49;16.30;99.90
54140;DHT22;40046;53.254;5.900;2022-09-16T11:00:22;16.40;99.90
54140;DHT22;40046;53.254;5.900;2022-09-16T11:14:51;16.60;99.90
54140;DHT22;40046;53.254;5.900;2022-09-16T11:17:33;16.60;99.90
54140;DHT22;40046;53.254;5.900;2022-09-16T11:30:59;16.70;99.90
54140;DHT22;40046;53.254;5.900;2022-09-16T11:33:45;16.60;99.90
54140;DHT22;40046;53.254;5.900;2022-09-16T11:41:35;16.90;99.90
54140;DHT22;40046;53.254;5.900;2022-09-16T11:47:08;17.20;99.90
54140;DHT22;40046;53.254;5.900;2022-09-16T11:50:02;17.20;99.90
54140;DHT22;40046;53.254;5.900;2022-09-16T11:58:17;17.00;99.90
54140;DHT22;40046;53.254;5.900;2022-09-16T12:00:45;17.10;99.90
54140;DHT22;40046;53.254;5.900;2022-09-16T12:03:28;17.10;99.90
54140;DHT22;40046;53.254;5.900;2022-09-16T12:06:09;17.20;99.90
54140;DHT22;40046;53.254;5.900;2022-09-16T12:11:26;17.10;99.90
54140;DHT22;40046;53.254;5.900;2022-09-16T12:14:33;17.10;99.90
54140;DHT22;40046;53.254;5.900;2022-09-16T12:17:25;17.00;99.90
54140;DHT22;40046;53.254;5.900;2022-09-16T12:20:08;17.00;99.90
54140;DHT22;40046;53.254;5.900;2022-09-16T12:22:43;17.00;99.90
54140;DHT22;40046;53.254;5.900;2022-09-16T12:25:20;17.00;99.90
54140;DHT22;40046;53.254;5.900;2022-09-16T12:27:56;16.90;99.90
54140;DHT22;40046;53.254;5.900;2022-09-16T12:30:36;16.70;99.90
54140;DHT22;40046;53.254;5.900;2022-09-16T12:35:55;16.30;99.90
54140;DHT22;40046;53.254;5.900;2022-09-16T12:38:23;16.20;99.90
54140;DHT22;40046;53.254;5.900;2022-09-16T12:41:11;16.20;99.90
54140;DHT22;40046;53.254;5.900;2022-09-16T12:57:34;16.50;99.90
54140;DHT22;40046;53.254;5.900;2022-09-16T13:02:36;16.60;99.90
54140;DHT22;40046;53.254;5.900;2022-09-16T13:05:16;16.50;99.90
54140;DHT22;40046;53.254;5.900;2022-09-16T13:07:48;16.30;99.90
54140;DHT22;40046;53.254;5.900;2022-09-16T13:10:35;15.90;99.90
54140;DHT22;40046;53.254;5.900;2022-09-16T13:13:03;15.50;99.90
54140;DHT22;40046;53.254;5.900;2022-09-16T13:15:30;15.20;99.90
54140;DHT22;40046;53.254;5.900;2022-09-16T13:20:47;14.80;99.90
54140;DHT22;40046;53.254;5.900;2022-09-16T13:23:25;14.60;99.90
54140;DHT22;40046;53.254;5.900;2022-09-16T13:26:02;14.60;99.90
54140;DHT22;40046;53.254;5.900;2022-09-16T13:33:39;14.60;99.90
54140;DHT22;40046;53.254;5.900;2022-09-16T13:38:48;14.60;99.90
54140;DHT22;40046;53.254;5.900;2022-09-16T13:41:38;14.60;99.90
54140;DHT22;40046;53.254;5.900;2022-09-16T13:49:58;14.80;99.90
54140;DHT22;40046;53.254;5.900;2022-09-16T13:52:33;14.80;99.90
54140;DHT22;40046;53.254;5.900;2022-09-16T13:55:03;14.80;99.90
54140;DHT22;40046;53.254;5.900;2022-09-16T14:00:16;14.80;99.90
54140;DHT22;40046;53.254;5.900;2022-09-16T14:05:22;14.80;99.90
54140;DHT22;40046;53.254;5.900;2022-09-16T14:08:01;14.90;99.90
54140;DHT22;40046;53.254;5.900;2022-09-16T14:10:47;15.00;99.90
54140;DHT22;40046;53.254;5.900;2022-09-16T14:13:20;15.00;99.90
54140;DHT22;40046;53.254;5.900;2022-09-16T14:15:52;15.10;99.90
54140;DHT22;40046;53.254;5.900;2022-09-16T14:18:31;15.20;99.90
54140;DHT22;40046;53.254;5.900;2022-09-16T14:21:04;15.30;99.90
54140;DHT22;40046;53.254;5.900;2022-09-16T14:23:32;15.30;99.90
54140;DHT22;40046;53.254;5.900;2022-09-16T14:26:19;15.40;99.90
54140;DHT22;40046;53.254;5.900;2022-09-16T14:28:46;15.10;99.90
54140;DHT22;40046;53.254;5.900;2022-09-16T14:31:18;15.00;99.90
54140;DHT22;40046;53.254;5.900;2022-09-16T14:33:48;14.80;99.90
54140;DHT22;40046;53.254;5.900;2022-09-16T14:38:49;14.30;99.90
54140;DHT22;40046;53.254;5.900;2022-09-16T14:41:25;14.10;99.90
54140;DHT22;40046;53.254;5.900;2022-09-16T14:43:52;13.90;99.90
54140;DHT22;40046;53.254;5.900;2022-09-16T14:46:19;13.70;99.90
54140;DHT22;40046;53.254;5.900;2022-09-16T14:48:45;13.60;99.90
54140;DHT22;40046;53.254;5.900;2022-09-16T14:51:21;13.50;99.90
54140;DHT22;40046;53.254;5.900;2022-09-16T14:53:58;13.40;99.90
54140;DHT22;40046;53.254;5.900;2022-09-16T14:56:25;13.30;99.90
54140;DHT22;40046;53.254;5.900;2022-09-16T14:58:52;13.30;99.90
54140;DHT22;40046;53.254;5.900;2022-09-16T15:01:26;13.40;99.90
54140;DHT22;40046;53.254;5.900;2022-09-16T15:04:00;13.40;99.90
54140;DHT22;40046;53.254;5.900;2022-09-16T15:06:32;13.50;99.90
54140;DHT22;40046;53.254;5.900;2022-09-16T15:09:04;13.50;99.90
54140;DHT22;40046;53.254;5.900;2022-09-16T15:11:43;13.40;99.90
54140;DHT22;40046;53.254;5.900;2022-09-16T15:14:10;13.40;99.90
54140;DHT22;40046;53.254;5.900;2022-09-16T15:16:45;13.30;99.90
54140;DHT22;40046;53.254;5.900;2022-09-16T15:19:18;13.30;99.90
54140;DHT22;40046;53.254;5.900;2022-09-16T15:21:46;13.30;99.90
54140;DHT22;40046;53.254;5.900;2022-09-16T15:24:20;13.30;99.90
54140;DHT22;40046;53.254;5.900;2022-09-16T15:26:47;13.30;99.90
54140;DHT22;40046;53.254;5.900;2022-09-16T15:31:43;13.20;99.90
54140;DHT22;40046;53.254;5.900;2022-09-16T15:36:53;13.20;99.90
54140;DHT22;40046;53.254;5.900;2022-09-16T15:39:32;13.20;99.90
54140;DHT22;40046;53.254;5.900;2022-09-16T15:42:17;13.20;99.90
54140;DHT22;40046;53.254;5.900;2022-09-16T15:44:55;13.30;99.90
54140;DHT22;40046;53.254;5.900;2022-09-16T15:47:28;13.40;99.90
54140;DHT22;40046;53.254;5.900;2022-09-16T15:55:34;13.50;99.90
54140;DHT22;40046;53.254;5.900;2022-09-16T16:03:51;13.60;99.90
54140;DHT22;40046;53.254;5.900;2022-09-16T16:06:18;13.70;99.90
54140;DHT22;40046;53.254;5.900;2022-09-16T16:08:48;13.70;99.90
54140;DHT22;40046;53.254;5.900;2022-09-16T16:11:20;13.70;99.90
54140;DHT22;40046;53.254;5.900;2022-09-16T16:13:46;13.80;99.90
54140;DHT22;40046;53.254;5.900;2022-09-16T16:16:15;13.80;99.90
54140;DHT22;40046;53.254;5.900;2022-09-16T16:18:43;13.80;99.90
54140;DHT22;40046;53.254;5.900;2022-09-16T16:21:12;13.90;99.90
54140;DHT22;40046;53.254;5.900;2022-09-16T16:23:38;13.90;99.90
54140;DHT22;40046;53.254;5.900;2022-09-16T16:26:06;13.90;99.90
54140;DHT22;40046;53.254;5.900;2022-09-16T16:28:33;13.80;99.90
54140;DHT22;40046;53.254;5.900;2022-09-16T16:31:17;13.50;99.90
54140;DHT22;40046;53.254;5.900;2022-09-16T16:33:47;13.40;99.90
54140;DHT22;40046;53.254;5.900;2022-09-16T16:36:17;13.30;99.90
54140;DHT22;40046;53.254;5.900;2022-09-16T16:38:43;13.20;99.90
54140;DHT22;40046;53.254;5.900;2022-09-16T16:41:11;13.20;99.90
54140;DHT22;40046;53.254;5.900;2022-09-16T16:43:37;13.20;99.90
54140;DHT22;40046;53.254;5.900;2022-09-16T16:46:03;13.20;99.90
54140;DHT22;40046;53.254;5.900;2022-09-16T16:48:29;13.10;99.90
54140;DHT22;40046;53.254;5.900;2022-09-16T16:50:57;13.10;99.90
54140;DHT22;40046;53.254;5.900;2022-09-16T16:53:23;13.00;99.90
54140;DHT22;40046;53.254;5.900;2022-09-16T16:55:49;13.00;99.90
54140;DHT22;40046;53.254;5.900;2022-09-16T16:58:15;13.10;99.90
54140;DHT22;40046;53.254;5.900;2022-09-16T17:00:41;13.10;99.90
54140;DHT22;40046;53.254;5.900;2022-09-16T17:03:06;13.20;99.90
54140;DHT22;40046;53.254;5.900;2022-09-16T17:05:32;13.20;99.90
54140;DHT22;40046;53.254;5.900;2022-09-16T17:07:58;13.20;99.90
54140;DHT22;40046;53.254;5.900;2022-09-16T17:10:23;13.20;99.90
54140;DHT22;40046;53.254;5.900;2022-09-16T17:12:49;13.20;99.90
54140;DHT22;40046;53.254;5.900;2022-09-16T17:15:15;13.20;99.90
54140;DHT22;40046;53.254;5.900;2022-09-16T17:17:41;13.20;99.90
54140;DHT22;40046;53.254;5.900;2022-09-16T17:20:07;13.20;99.90
54140;DHT22;40046;53.254;5.900;2022-09-16T17:22:33;13.20;99.90
54140;DHT22;40046;53.254;5.900;2022-09-16T17:24:59;13.10;99.90
54140;DHT22;40046;53.254;5.900;2022-09-16T17:27:25;13.20;99.90
54140;DHT22;40046;53.254;5.900;2022-09-16T17:29:52;13.20;99.90
54140;DHT22;40046;53.254;5.900;2022-09-16T17:32:18;13.20;99.90
54140;DHT22;40046;53.254;5.900;2022-09-16T17:34:44;13.20;99.90
54140;DHT22;40046;53.254;5.900;2022-09-16T17:37:09;13.20;99.90
54140;DHT22;40046;53.254;5.900;2022-09-16T17:39:35;13.20;99.90
54140;DHT22;40046;53.254;5.900;2022-09-16T17:42:02;13.20;99.90
54140;DHT22;40046;53.254;5.900;2022-09-16T17:44:28;13.10;99.90
54140;DHT22;40046;53.254;5.900;2022-09-16T17:46:54;13.00;99.90
54140;DHT22;40046;53.254;5.900;2022-09-16T17:49:21;13.00;99.90
54140;DHT22;40046;53.254;5.900;2022-09-16T17:51:48;12.90;99.90
54140;DHT22;40046;53.254;5.900;2022-09-16T17:54:15;12.90;99.90
54140;DHT22;40046;53.254;5.900;2022-09-16T17:56:41;12.90;99.90
54140;DHT22;40046;53.254;5.900;2022-09-16T17:59:07;12.90;99.90
54140;DHT22;40046;53.254;5.900;2022-09-16T18:01:33;12.90;99.90
54140;DHT22;40046;53.254;5.900;2022-09-16T18:03:59;12.90;99.90
54140;DHT22;40046;53.254;5.900;2022-09-16T18:06:29;12.90;99.90
54140;DHT22;40046;53.254;5.900;2022-09-16T18:08:58;12.90;99.90
54140;DHT22;40046;53.254;5.900;2022-09-16T18:11:24;12.90;99.90
54140;DHT22;40046;53.254;5.900;2022-09-16T18:13:57;13.00;99.90
54140;DHT22;40046;53.254;5.900;2022-09-16T18:16:23;13.10;99.90
54140;DHT22;40046;53.254;5.900;2022-09-16T18:18:51;13.10;99.90
54140;DHT22;40046;53.254;5.900;2022-09-16T18:21:18;13.00;99.90
54140;DHT22;40046;53.254;5.900;2022-09-16T18:23:45;12.90;99.90
54140;DHT22;40046;53.254;5.900;2022-09-16T18:26:14;12.90;99.90
54140;DHT22;40046;53.254;5.900;2022-09-16T18:28:44;12.80;99.90
54140;DHT22;40046;53.254;5.900;2022-09-16T18:31:15;12.70;99.90
54140;DHT22;40046;53.254;5.900;2022-09-16T18:33:42;12.70;99.90
54140;DHT22;40046;53.254;5.900;2022-09-16T18:36:10;12.60;99.90
54140;DHT22;40046;53.254;5.900;2022-09-16T18:38:38;12.60;99.90
54140;DHT22;40046;53.254;5.900;2022-09-16T18:41:06;12.60;99.90
54140;DHT22;40046;53.254;5.900;2022-09-16T18:43:33;12.60;99.90
54140;DHT22;40046;53.254;5.900;2022-09-16T18:48:37;12.50;99.90
54140;DHT22;40046;53.254;5.900;2022-09-16T18:51:03;12.50;99.90
54140;DHT22;40046;53.254;5.900;2022-09-16T18:53:30;12.40;99.90